Time;durP1;ratioP1;P1;durP2;ratioP2;P2;SDS_P1;SDS_P2;PMS_P1;PMS_P2;Temp;Humidity;BMP_temperature;BMP_pressure;BME280_temperature;BME280_humidity;BME280_pressure;Samples;Min_cycle;Max_cycle;Signal;HPM_P1;HPM_P2
2022/12/31 00:01:19;;;;;;;1.25;0.77;;;;;;;14.24;75.21;99750.41;5035091;28;20043;-68
2022/12/31 00:03:50;;;;;;;1.05;0.75;;;;;;;14.24;75.38;99759.13;5033637;28;20033;-68
2022/12/31 00:09:29;;;;;;;0.95;0.70;;;;;;;14.24;75.38;99763.56;4967427;28;20050;-73
2022/12/31 00:12:00;;;;;;;0.98;0.60;;;;;;;14.21;75.24;99762.88;4964045;28;20401;-73
2022/12/31 00:14:26;;;;;;;1.23;0.70;;;;;;;14.21;75.45;99752.34;4966179;28;20038;-73
2022/12/31 00:16:52;;;;;;;0.80;0.52;;;;;;;14.22;75.42;99761.06;4979550;28;20400;-73
2022/12/31 00:19:22;;;;;;;0.93;0.80;;;;;;;14.21;75.34;99757.63;4986590;28;20481;-73
2022/12/31 00:21:48;;;;;;;2.30;1.15;;;;;;;14.20;75.21;99760.38;4966135;28;20042;-73
2022/12/31 00:24:14;;;;;;;1.05;0.70;;;;;;;14.20;75.09;99761.19;4986076;28;20114;-73
2022/12/31 00:26:45;;;;;;;1.10;0.98;;;;;;;14.20;75.47;99763.81;4977073;28;20041;-73
2022/12/31 00:29:12;;;;;;;0.70;0.55;;;;;;;14.20;75.41;99763.00;4979371;28;20122;-73
2022/12/31 00:31:40;;;;;;;0.98;0.88;;;;;;;14.17;75.13;99769.34;4948138;28;20034;-73
2022/12/31 00:34:06;;;;;;;0.90;0.90;;;;;;;14.19;75.43;99758.69;4971887;28;20031;-72
2022/12/31 00:36:37;;;;;;;1.30;0.80;;;;;;;14.18;75.33;99764.94;4972334;28;20504;-72
2022/12/31 00:39:07;;;;;;;1.27;0.68;;;;;;;14.17;75.35;99761.47;4960089;28;20659;-72
2022/12/31 00:41:33;;;;;;;0.80;0.60;;;;;;;14.18;75.25;99767.56;4963601;28;20038;-73
2022/12/31 00:44:01;;;;;;;0.50;0.50;;;;;;;14.17;75.42;99760.63;4979984;28;20042;-73
2022/12/31 00:46:30;;;;;;;1.38;1.08;;;;;;;14.17;75.64;99769.34;4983745;28;20039;-73
2022/12/31 00:48:56;;;;;;;0.80;0.47;;;;;;;14.17;75.34;99771.97;4968386;28;20031;-73
2022/12/31 00:51:28;;;;;;;0.77;0.75;;;;;;;14.16;75.53;99765.06;4961223;28;20042;-73
2022/12/31 00:53:58;;;;;;;0.75;0.65;;;;;;;14.15;75.42;99762.56;4967814;28;20037;-73
2022/12/31 00:56:27;;;;;;;0.80;0.65;;;;;;;14.15;75.46;99770.44;4982734;28;20053;-72
2022/12/31 00:58:53;;;;;;;0.73;0.60;;;;;;;14.15;75.53;99770.44;4956551;28;20046;-72
2022/12/31 01:01:31;;;;;;;0.50;0.50;;;;;;;14.14;75.47;99776.66;4962718;28;20050;-72
2022/12/31 01:04:02;;;;;;;0.70;0.60;;;;;;;14.13;75.43;99781.09;4952227;28;20030;-72
2022/12/31 01:06:29;;;;;;;0.40;0.40;;;;;;;14.13;75.45;99781.09;4953403;28;20042;-72
2022/12/31 01:08:57;;;;;;;0.82;0.80;;;;;;;14.13;75.49;99786.34;4951362;28;20038;-73
2022/12/31 01:11:27;;;;;;;1.17;0.93;;;;;;;14.13;75.36;99785.53;4966847;28;20045;-73
2022/12/31 01:14:00;;;;;;;0.50;0.50;;;;;;;14.12;75.33;99789.91;4966758;28;20042;-72
2022/12/31 01:16:43;;;;;;;1.33;0.80;;;;;;;14.12;75.36;99776.78;4986291;28;20030;-72
2022/12/31 01:19:19;;;;;;;1.60;1.23;;;;;;;14.11;75.50;99790.91;4987214;28;20033;-72
2022/12/31 01:21:47;;;;;;;1.67;0.80;;;;;;;14.11;75.29;99792.69;4984889;28;20685;-72
2022/12/31 01:24:19;;;;;;;1.77;1.63;;;;;;;14.11;75.52;99801.41;4985496;28;20369;-72
2022/12/31 01:26:50;;;;;;;0.85;0.68;;;;;;;14.11;75.32;99797.94;4984414;28;20042;-72
2022/12/31 01:29:18;;;;;;;0.88;0.75;;;;;;;14.11;75.68;99793.53;4975570;28;20493;-72
2022/12/31 01:31:48;;;;;;;0.98;0.70;;;;;;;14.10;75.52;99791.84;4983301;28;20057;-72
2022/12/31 01:34:19;;;;;;;0.90;0.60;;;;;;;14.10;75.40;99797.13;4981801;28;20034;-72
2022/12/31 01:36:45;;;;;;;1.25;0.50;;;;;;;14.10;75.37;99798.91;4979847;28;20042;-73
2022/12/31 01:39:16;;;;;;;1.05;0.82;;;;;;;14.09;75.57;99795.47;4980154;28;20030;-72
2022/12/31 01:41:46;;;;;;;1.02;0.70;;;;;;;14.08;75.50;99804.28;4970388;28;20516;-72
2022/12/31 01:44:12;;;;;;;0.63;0.50;;;;;;;14.07;75.46;99807.88;4962041;28;20053;-72
2022/12/31 01:46:46;;;;;;;1.48;0.70;;;;;;;14.08;75.54;99809.53;4981513;28;20065;-73
2022/12/31 01:49:37;;;;;;;0.60;0.60;;;;;;;14.08;75.45;99812.19;4981304;28;20039;-72
2022/12/31 01:52:10;;;;;;;1.10;0.80;;;;;;;14.07;75.53;99818.38;4960594;28;20042;-72
2022/12/31 01:54:40;;;;;;;0.85;0.73;;;;;;;14.07;75.50;99817.56;4967014;28;20150;-72
2022/12/31 01:57:08;;;;;;;0.50;0.50;;;;;;;14.06;75.40;99814.13;4986087;28;20114;-73
2022/12/31 01:59:35;;;;;;;3.63;0.93;;;;;;;14.07;75.50;99823.63;4982883;28;20393;-72
2022/12/31 02:02:06;;;;;;;0.55;0.50;;;;;;;14.07;75.42;99822.81;4972231;28;20030;-73
2022/12/31 02:04:35;;;;;;;0.60;0.60;;;;;;;14.07;75.61;99828.88;4964871;28;20042;-73
2022/12/31 02:07:04;;;;;;;1.75;0.70;;;;;;;14.06;75.29;99823.75;4985182;28;20039;-73
2022/12/31 02:09:31;;;;;;;0.85;0.85;;;;;;;14.06;75.59;99824.63;4982199;28;20030;-73
2022/12/31 02:11:57;;;;;;;0.80;0.50;;;;;;;14.06;75.76;99822.00;4961846;28;20038;-73
2022/12/31 02:14:29;;;;;;;1.42;0.98;;;;;;;14.05;75.49;99830.00;4983483;28;20528;-73
2022/12/31 02:17:22;;;;;;;0.90;0.80;;;;;;;14.05;75.46;99836.06;4969470;28;20522;-73
2022/12/31 02:19:53;;;;;;;0.70;0.63;;;;;;;14.04;75.60;99829.19;4988173;28;20046;-73
2022/12/31 02:22:31;;;;;;;0.88;0.70;;;;;;;14.04;75.61;99839.69;4969265;28;20050;-73
2022/12/31 02:25:17;;;;;;;0.70;0.70;;;;;;;14.04;75.73;99829.19;4959112;28;20034;-73
2022/12/31 02:27:51;;;;;;;0.70;0.50;;;;;;;14.03;75.36;99822.25;4975025;28;20058;-72
2022/12/31 02:30:23;;;;;;;1.02;0.70;;;;;;;14.03;75.51;99809.94;4986052;28;20045;-72
2022/12/31 02:33:11;;;;;;;1.15;0.90;;;;;;;14.03;75.52;99806.50;4960428;28;20496;-73
2022/12/31 02:35:48;;;;;;;1.15;1.05;;;;;;;14.02;75.67;99817.94;4987931;28;20514;-73
2022/12/31 02:38:21;;;;;;;0.65;0.60;;;;;;;14.02;75.46;99815.31;4965843;28;20477;-73
2022/12/31 02:40:50;;;;;;;0.70;0.50;;;;;;;14.01;75.32;99819.75;4983075;28;20042;-73
2022/12/31 02:43:18;;;;;;;0.52;0.45;;;;;;;14.01;75.49;99813.69;4983350;28;20050;-72
2022/12/31 02:46:00;;;;;;;1.10;0.90;;;;;;;14.01;75.64;99827.63;4961376;28;20042;-73
2022/12/31 02:48:39;;;;;;;1.08;0.68;;;;;;;14.01;75.63;99829.44;4957721;28;20039;-73
2022/12/31 02:51:24;;;;;;;1.42;1.13;;;;;;;14.02;75.50;99836.34;4950371;28;20400;-73
2022/12/31 02:54:10;;;;;;;2.45;1.25;;;;;;;14.01;75.42;99832.06;4985051;28;20412;-73
2022/12/31 02:57:04;;;;;;;1.30;0.80;;;;;;;13.99;75.45;99829.56;4978219;28;20045;-73
2022/12/31 03:02:45;;;;;;;1.15;1.00;;;;;;;14.00;75.56;99838.25;4965660;28;19921;-73
2022/12/31 03:05:14;;;;;;;0.88;0.88;;;;;;;13.99;75.55;99841.88;4987114;28;20051;-74
2022/12/31 03:07:48;;;;;;;1.20;1.10;;;;;;;14.00;75.35;99849.59;4964883;28;20061;-73
2022/12/31 03:10:16;;;;;;;0.60;0.57;;;;;;;14.00;75.53;99848.78;4952344;28;20434;-73
2022/12/31 03:12:48;;;;;;;0.63;0.57;;;;;;;13.99;75.44;99842.69;4981722;28;20030;-73
2022/12/31 03:15:21;;;;;;;0.88;0.63;;;;;;;13.99;75.34;99847.13;4988382;28;20057;-74
2022/12/31 03:17:49;;;;;;;2.17;0.65;;;;;;;13.98;75.54;99848.91;4967812;28;20030;-73
2022/12/31 03:23:11;;;;;;;2.22;1.00;;;;;;;13.98;75.35;99850.69;4971433;28;20045;-73
2022/12/31 03:25:39;;;;;;;0.85;0.68;;;;;;;13.98;75.51;99851.53;4992663;28;20042;-73
2022/12/31 03:28:14;;;;;;;1.52;0.52;;;;;;;13.98;75.79;99855.94;4956177;28;20050;-73
2022/12/31 03:30:43;;;;;;;0.60;0.60;;;;;;;13.98;75.53;99854.16;4987359;28;20041;-73
2022/12/31 03:33:09;;;;;;;0.68;0.68;;;;;;;13.97;75.39;99860.38;4986391;28;20042;-73
2022/12/31 03:35:37;;;;;;;0.52;0.50;;;;;;;13.98;75.49;99855.94;4958862;28;20400;-73
2022/12/31 03:38:06;;;;;;;0.40;0.40;;;;;;;13.97;75.37;99846.41;4982158;28;20026;-73
2022/12/31 03:40:41;;;;;;;0.77;0.50;;;;;;;13.98;75.53;99855.94;4972185;28;20031;-72
2022/12/31 03:43:07;;;;;;;0.60;0.60;;;;;;;13.97;75.67;99849.88;4983635;28;20030;-73
2022/12/31 03:45:37;;;;;;;0.70;0.70;;;;;;;13.96;75.31;99839.50;4968040;28;20053;-73
2022/12/31 03:48:04;;;;;;;0.30;0.30;;;;;;;13.97;75.46;99843.78;4984029;28;20500;-73
2022/12/31 03:50:30;;;;;;;1.08;0.80;;;;;;;13.95;75.55;99843.06;4978378;28;20041;-73
2022/12/31 03:52:56;;;;;;;2.00;0.98;;;;;;;13.96;75.37;99850.00;4988054;28;20656;-73
2022/12/31 03:55:25;;;;;;;0.63;0.63;;;;;;;13.96;75.40;99842.94;4957176;28;20039;-73
2022/12/31 03:57:51;;;;;;;1.08;0.88;;;;;;;13.96;75.60;99834.25;4972282;28;20049;-73
2022/12/31 04:00:21;;;;;;;0.60;0.50;;;;;;;13.96;75.39;99829.00;4956327;28;20038;-73
2022/12/31 04:02:50;;;;;;;1.48;0.98;;;;;;;13.95;75.42;99836.03;4987952;28;20496;-72
2022/12/31 04:05:17;;;;;;;2.03;0.90;;;;;;;13.95;75.61;99841.28;4989505;28;20399;-73
2022/12/31 04:07:44;;;;;;;0.75;0.57;;;;;;;13.95;75.41;99845.69;4987566;28;20034;-73
2022/12/31 04:10:12;;;;;;;1.05;0.63;;;;;;;13.95;75.41;99837.81;4987520;28;20114;-73
2022/12/31 04:12:41;;;;;;;1.17;0.95;;;;;;;13.95;75.63;99835.19;4952927;28;20049;-73
2022/12/31 04:15:10;;;;;;;1.10;0.70;;;;;;;13.95;75.46;99832.56;4988776;28;20038;-73
2022/12/31 04:17:38;;;;;;;0.80;0.80;;;;;;;13.95;75.39;99835.19;4987931;28;20030;-73
2022/12/31 04:20:05;;;;;;;0.73;0.63;;;;;;;13.94;75.59;99844.88;4943022;28;20041;-73
2022/12/31 04:22:31;;;;;;;0.60;0.60;;;;;;;13.94;75.39;99839.63;4969098;28;20060;-73
2022/12/31 04:24:59;;;;;;;0.90;0.90;;;;;;;13.94;75.45;99830.94;4982865;28;20522;-73
2022/12/31 04:27:30;;;;;;;0.60;0.57;;;;;;;13.94;75.49;99830.94;4980035;28;20034;-73
2022/12/31 04:30:06;;;;;;;1.00;0.93;;;;;;;13.95;75.54;99843.06;4965819;28;20038;-72
2022/12/31 04:32:33;;;;;;;0.90;0.65;;;;;;;13.93;75.49;99835.34;4980390;28;20503;-73
2022/12/31 04:34:59;;;;;;;1.10;0.70;;;;;;;13.94;75.46;99839.63;4951635;28;20053;-73
2022/12/31 04:37:29;;;;;;;1.08;0.60;;;;;;;13.94;75.37;99846.69;4970056;28;20037;-73
2022/12/31 04:39:58;;;;;;;0.70;0.70;;;;;;;13.93;75.35;99840.59;4971842;28;20507;-73
2022/12/31 04:42:26;;;;;;;1.00;0.60;;;;;;;13.93;75.71;99856.34;4985159;28;20396;-73
2022/12/31 04:44:54;;;;;;;0.98;0.80;;;;;;;13.94;75.48;99859.81;4988073;28;20484;-73
2022/12/31 04:47:20;;;;;;;1.77;1.27;;;;;;;13.93;75.11;99858.97;4987573;28;20034;-73
2022/12/31 04:49:47;;;;;;;0.70;0.63;;;;;;;13.94;75.35;99859.81;4963565;28;20561;-73
2022/12/31 04:52:13;;;;;;;0.70;0.50;;;;;;;13.92;75.27;99861.72;4982437;28;20412;-73
2022/12/31 04:54:39;;;;;;;1.05;0.95;;;;;;;13.93;75.39;99868.63;4986832;28;20038;-73
2022/12/31 04:57:09;;;;;;;0.50;0.50;;;;;;;13.92;75.37;99865.19;4978122;28;20038;-73
2022/12/31 04:59:38;;;;;;;0.77;0.60;;;;;;;13.92;75.39;99866.97;4960375;28;20034;-73
2022/12/31 05:02:04;;;;;;;1.48;1.05;;;;;;;13.93;75.46;99873.88;4981030;28;20393;-73
2022/12/31 05:04:32;;;;;;;1.40;0.98;;;;;;;13.92;75.36;99867.81;4982935;28;20038;-73
2022/12/31 05:06:58;;;;;;;0.50;0.50;;;;;;;13.92;75.89;99872.22;4984837;28;20041;-73
2022/12/31 05:09:26;;;;;;;1.10;0.60;;;;;;;13.92;75.45;99870.44;4979810;28;20432;-74
2022/12/31 05:11:54;;;;;;;0.93;0.60;;;;;;;13.92;75.44;99872.22;4965886;28;20053;-72
2022/12/31 05:14:23;;;;;;;0.63;0.60;;;;;;;13.93;75.33;99879.16;4982444;28;20026;-73
2022/12/31 05:16:57;;;;;;;0.70;0.70;;;;;;;13.93;75.35;99881.78;4980149;28;20038;-73
2022/12/31 05:19:23;;;;;;;0.57;0.57;;;;;;;13.93;75.17;99884.41;4980841;28;20033;-73
2022/12/31 05:22:27;;;;;;;0.88;0.70;;;;;;;13.92;75.44;99893.22;4959832;28;20043;-73
2022/12/31 05:24:38;;;;;;;0.63;0.47;;;;;;;13.92;75.57;99896.69;4982731;28;20054;-72
2022/12/31 05:27:08;;;;;;;0.73;0.60;;;;;;;13.93;75.05;99894.91;4950626;28;20057;-73
2022/12/31 05:29:34;;;;;;;0.52;0.52;;;;;;;13.92;75.25;99890.59;4983281;28;20061;-72
2022/12/31 05:32:05;;;;;;;0.60;0.55;;;;;;;13.93;75.39;99889.66;4972731;28;20030;-73
2022/12/31 05:34:31;;;;;;;0.82;0.82;;;;;;;13.92;75.13;99891.44;4971823;28;20031;-73
2022/12/31 05:37:00;;;;;;;1.40;0.82;;;;;;;13.92;75.35;99899.31;4958165;28;21000;-72
2022/12/31 05:39:28;;;;;;;0.65;0.50;;;;;;;13.91;75.44;99888.94;4965530;28;20042;-73
2022/12/31 05:41:54;;;;;;;0.60;0.60;;;;;;;13.90;75.25;99884.66;4941780;28;20057;-72
2022/12/31 05:44:20;;;;;;;0.40;0.38;;;;;;;13.91;75.02;99876.66;4965594;28;20038;-73
2022/12/31 05:46:49;;;;;;;0.38;0.38;;;;;;;13.92;75.42;99882.72;4983066;28;20038;-73
2022/12/31 05:49:15;;;;;;;0.40;0.32;;;;;;;13.91;75.36;99883.69;4980840;28;20030;-73
2022/12/31 05:51:42;;;;;;;0.65;0.65;;;;;;;13.91;74.87;99889.78;4979609;28;20046;-73
2022/12/31 05:54:08;;;;;;;0.70;0.68;;;;;;;13.91;75.34;99895.03;4986430;28;20034;-74
2022/12/31 05:56:36;;;;;;;0.85;0.75;;;;;;;13.90;75.27;99911.72;4968816;28;20042;-73
2022/12/31 05:59:04;;;;;;;0.63;0.50;;;;;;;13.90;75.55;99906.47;4967223;28;20026;-73
2022/12/31 06:01:35;;;;;;;0.65;0.60;;;;;;;13.91;75.41;99909.94;4987389;28;20492;-74
2022/12/31 06:04:03;;;;;;;0.65;0.60;;;;;;;13.90;75.14;99916.16;4992490;28;20035;-73
2022/12/31 06:06:30;;;;;;;0.80;0.60;;;;;;;13.89;75.18;99907.47;4972582;28;20038;-72
2022/12/31 06:08:56;;;;;;;0.52;0.52;;;;;;;13.91;75.62;99909.94;5019763;23;20046;-67
2022/12/31 06:11:25;;;;;;;0.43;0.40;;;;;;;13.90;75.37;99921.41;5010487;28;20033;-67
2022/12/31 06:13:51;;;;;;;0.50;0.47;;;;;;;13.91;75.43;99928.34;5005987;28;20037;-67
2022/12/31 06:16:21;;;;;;;0.50;0.50;;;;;;;13.94;75.27;99936.78;5007508;28;20041;-67
2022/12/31 06:18:50;;;;;;;0.60;0.50;;;;;;;13.99;75.25;99945.09;5009998;28;20037;-68
2022/12/31 06:21:17;;;;;;;0.75;0.60;;;;;;;14.04;75.26;99947.34;4994542;28;20542;-68
2022/12/31 06:23:47;;;;;;;2.28;0.65;;;;;;;14.10;75.12;99938.94;5002254;28;20041;-67
2022/12/31 06:26:14;;;;;;;0.85;0.40;;;;;;;14.16;74.99;99935.78;4991354;28;20121;-68
2022/12/31 06:28:40;;;;;;;0.75;0.68;;;;;;;14.21;74.72;99941.47;5006655;28;20045;-67
2022/12/31 06:31:15;;;;;;;1.33;0.75;;;;;;;14.26;74.51;99937.63;5009565;28;20041;-68
2022/12/31 06:33:45;;;;;;;0.70;0.50;;;;;;;14.29;74.55;99940.00;5000190;28;20046;-67
2022/12/31 06:36:17;;;;;;;0.73;0.60;;;;;;;14.31;74.75;99940.69;5000651;28;20396;-67
2022/12/31 06:38:52;;;;;;;0.70;0.70;;;;;;;14.33;74.38;99938.75;4998391;28;20392;-67
2022/12/31 06:41:18;;;;;;;1.35;1.05;;;;;;;14.36;74.62;99949.00;5022106;28;20040;-68
2022/12/31 06:43:45;;;;;;;0.70;0.63;;;;;;;14.36;74.47;99934.06;5008573;28;20040;-67
2022/12/31 06:46:14;;;;;;;1.65;1.08;;;;;;;14.37;74.53;99927.84;5015134;28;20042;-67
2022/12/31 06:48:45;;;;;;;0.80;0.68;;;;;;;14.40;74.39;99934.66;4994475;28;20045;-67
2022/12/31 06:51:17;;;;;;;0.80;0.30;;;;;;;14.43;74.21;99939.63;5006400;28;20391;-67
2022/12/31 06:53:50;;;;;;;0.73;0.55;;;;;;;14.43;74.53;99939.63;4988371;28;20045;-67
2022/12/31 06:56:28;;;;;;;1.00;0.70;;;;;;;14.45;74.35;99940.34;5002683;28;20515;-67
2022/12/31 06:58:59;;;;;;;1.08;0.57;;;;;;;14.48;74.58;99937.44;5021316;28;20026;-67
2022/12/31 07:01:49;;;;;;;0.52;0.50;;;;;;;14.48;74.53;99934.78;5010374;28;20037;-67
2022/12/31 07:04:47;;;;;;;0.60;0.60;;;;;;;14.50;74.34;99938.16;5009278;28;20034;-68
2022/12/31 07:07:25;;;;;;;0.43;0.40;;;;;;;14.52;74.20;99944.09;4989042;28;20052;-68
2022/12/31 07:09:56;;;;;;;0.50;0.50;;;;;;;14.53;74.34;99950.19;4986751;28;20038;-67
2022/12/31 07:12:57;;;;;;;0.50;0.50;;;;;;;14.56;74.22;99948.13;5007642;28;20041;-68
2022/12/31 07:16:09;;;;;;;0.52;0.40;;;;;;;14.56;74.14;99950.75;5006569;28;20041;-68
2022/12/31 07:18:57;;;;;;;0.77;0.55;;;;;;;14.58;74.31;99947.97;4926782;28;20040;-68
2022/12/31 07:21:33;;;;;;;0.68;0.43;;;;;;;14.58;74.29;99958.50;5008367;28;20115;-67
2022/12/31 07:24:04;;;;;;;0.68;0.60;;;;;;;14.59;74.28;99954.94;5009086;28;20041;-69
2022/12/31 07:26:58;;;;;;;0.43;0.40;;;;;;;14.59;74.33;99961.03;5024661;28;20045;-69
2022/12/31 07:29:44;;;;;;;;;;;;;;;14.63;74.21;99958.13;5006696;28;20042;-69
2022/12/31 07:32:48;;;;;;;1.52;0.95;;;;;;;14.63;74.30;99961.59;5004547;28;19921;-69
2022/12/31 07:35:45;;;;;;;1.35;0.90;;;;;;;14.65;74.26;99975.41;5018529;28;20044;-70
2022/12/31 07:38:28;;;;;;;0.30;0.30;;;;;;;14.67;74.10;99973.50;5011625;28;20060;-69
2022/12/31 07:41:33;;;;;;;0.40;0.40;;;;;;;14.68;74.22;99969.91;5003071;28;20045;-68
2022/12/31 07:44:12;;;;;;;1.25;0.60;;;;;;;14.69;74.41;99973.34;5000762;28;20488;-68
2022/12/31 07:46:47;;;;;;;0.40;0.40;;;;;;;14.70;74.39;99969.78;4999902;28;20045;-68
2022/12/31 07:49:18;;;;;;;0.75;0.75;;;;;;;14.71;74.35;99969.66;5005993;28;20387;-68
2022/12/31 07:51:49;;;;;;;1.42;0.45;;;;;;;14.72;74.12;99980.97;5007553;28;20034;-68
2022/12/31 07:54:19;;;;;;;0.85;0.77;;;;;;;14.73;74.12;99977.41;5021942;28;20030;-68
2022/12/31 07:56:46;;;;;;;0.70;0.70;;;;;;;14.76;74.22;99987.66;5008013;28;20487;-68
2022/12/31 07:59:29;;;;;;;0.45;0.45;;;;;;;14.77;73.93;99989.31;5003676;28;20480;-68
2022/12/31 08:02:19;;;;;;;0.52;0.45;;;;;;;14.78;73.92;99996.22;5005445;28;20526;-68
2022/12/31 08:04:57;;;;;;;1.23;0.75;;;;;;;14.81;74.18;100003.00;5006155;28;20503;-68
2022/12/31 08:07:41;;;;;;;1.38;0.63;;;;;;;14.81;73.96;99995.97;5020446;28;20376;-68
2022/12/31 08:10:18;;;;;;;0.55;0.50;;;;;;;14.81;74.12;100006.50;5003837;28;20400;-68
2022/12/31 08:12:48;;;;;;;0.60;0.43;;;;;;;14.82;74.40;100007.31;5003646;28;20042;-68
2022/12/31 08:15:18;;;;;;;0.55;0.43;;;;;;;14.83;74.02;100009.81;5008469;28;20033;-67
2022/12/31 08:17:47;;;;;;;1.38;0.80;;;;;;;14.84;74.19;100010.63;4991414;28;20048;-67
2022/12/31 08:20:15;;;;;;;0.80;0.50;;;;;;;14.85;74.08;100018.41;5006710;28;20026;-67
2022/12/31 08:23:29;;;;;;;0.50;0.50;;;;;;;14.85;74.14;100015.75;4989693;28;20045;-68
2022/12/31 08:26:13;;;;;;;0.52;0.47;;;;;;;14.86;74.30;100025.31;5005822;28;20037;-68
2022/12/31 08:29:15;;;;;;;0.82;0.68;;;;;;;14.88;74.16;100015.50;5007670;28;20038;-68
2022/12/31 08:31:50;;;;;;;0.50;0.45;;;;;;;14.90;74.19;100016.19;5006070;28;20049;-68
2022/12/31 08:34:28;;;;;;;0.65;0.47;;;;;;;14.90;74.08;100020.63;5010038;28;20030;-68
2022/12/31 08:37:28;;;;;;;0.30;0.30;;;;;;;14.92;74.07;100010.81;5007594;28;20056;-68
2022/12/31 08:40:19;;;;;;;0.63;0.50;;;;;;;14.93;73.90;100018.56;5002886;28;20041;-68
2022/12/31 08:42:49;;;;;;;0.95;0.30;;;;;;;14.94;73.82;100024.66;5022620;28;20034;-68
2022/12/31 08:45:23;;;;;;;0.50;0.47;;;;;;;14.96;73.87;100026.19;5017818;28;20045;-68
2022/12/31 08:48:23;;;;;;;1.15;1.05;;;;;;;14.96;74.00;100023.56;5007868;28;20034;-68
2022/12/31 08:50:52;;;;;;;0.70;0.70;;;;;;;14.97;73.89;100027.00;5009348;28;20301;-68
2022/12/31 08:53:23;;;;;;;0.40;0.40;;;;;;;14.95;73.91;100016.63;5005742;28;20041;-68
2022/12/31 08:55:57;;;;;;;0.70;0.50;;;;;;;14.99;73.80;100034.78;5022747;28;20049;-67
2022/12/31 08:58:31;;;;;;;1.25;0.70;;;;;;;15.01;73.81;100022.31;4989600;28;20041;-68
2022/12/31 09:01:00;;;;;;;0.38;0.38;;;;;;;15.02;73.92;100029.25;5009901;28;20038;-68
2022/12/31 09:03:26;;;;;;;0.55;0.50;;;;;;;15.02;73.76;100035.34;5019158;28;20052;-68
2022/12/31 09:06:12;;;;;;;0.80;0.80;;;;;;;15.04;73.96;100032.56;5008234;28;20041;-68
2022/12/31 09:09:00;;;;;;;0.30;0.30;;;;;;;15.05;73.71;100045.59;4995727;28;20504;-67
2022/12/31 09:11:47;;;;;;;0.38;0.30;;;;;;;15.06;73.98;100046.41;5009321;28;20045;-67
2022/12/31 09:14:58;;;;;;;1.30;0.60;;;;;;;15.05;73.99;100053.47;4999379;28;20034;-67
2022/12/31 09:17:39;;;;;;;1.00;0.60;;;;;;;15.08;73.72;100055.00;4997250;28;20053;-67
2022/12/31 09:20:13;;;;;;;0.98;0.57;;;;;;;15.08;73.67;100060.25;5011014;28;20037;-67
2022/12/31 09:22:43;;;;;;;0.60;0.50;;;;;;;15.09;73.96;100048.78;5002948;28;20045;-67
2022/12/31 09:25:16;;;;;;;0.55;0.32;;;;;;;15.10;73.87;100047.81;5020405;28;20048;-68
2022/12/31 09:27:47;;;;;;;1.67;1.02;;;;;;;15.11;73.77;100046.84;5005605;28;20037;-68
2022/12/31 09:30:19;;;;;;;1.05;0.65;;;;;;;15.11;74.21;100045.03;5002279;28;20038;-68
2022/12/31 09:33:06;;;;;;;0.80;0.70;;;;;;;15.13;73.73;100056.28;4988719;28;20038;-68
2022/12/31 09:35:55;;;;;;;0.68;0.68;;;;;;;15.14;73.80;100057.09;4992952;28;20033;-68
2022/12/31 09:38:28;;;;;;;0.88;0.50;;;;;;;15.14;73.80;100055.31;5012043;28;20057;-68
2022/12/31 09:41:13;;;;;;;0.47;0.47;;;;;;;15.17;73.76;100067.38;5009722;28;20030;-68
2022/12/31 09:44:40;;;;;;;0.70;0.63;;;;;;;15.18;73.79;100057.66;5019584;28;20479;-68
2022/12/31 09:47:27;;;;;;;0.85;0.55;;;;;;;15.19;73.73;100060.16;4948191;28;20057;-68
2022/12/31 09:50:14;;;;;;;0.65;0.52;;;;;;;15.19;73.64;100060.16;5006952;28;20492;-67
2022/12/31 09:53:09;;;;;;;0.65;0.65;;;;;;;15.21;73.64;100066.13;4992173;28;20144;-70
2022/12/31 09:56:02;;;;;;;0.95;0.95;;;;;;;15.21;73.56;100055.59;5012378;28;20029;-68
2022/12/31 09:58:37;;;;;;;0.40;0.40;;;;;;;15.22;73.66;100057.28;5003351;28;20042;-68
2022/12/31 10:01:16;;;;;;;0.73;0.60;;;;;;;15.23;73.76;100051.03;5010182;28;20034;-68
2022/12/31 10:04:00;;;;;;;1.08;0.43;;;;;;;15.24;73.80;100051.88;5012848;28;20049;-68
2022/12/31 10:07:04;;;;;;;0.73;0.73;;;;;;;15.24;73.61;100047.44;5013912;28;20491;-68
2022/12/31 10:09:53;;;;;;;0.40;0.30;;;;;;;15.26;73.77;100042.88;5009996;28;20033;-68
2022/12/31 10:12:37;;;;;;;2.22;0.73;;;;;;;15.26;73.66;100050.75;5012320;28;20042;-68
2022/12/31 10:15:22;;;;;;;0.77;0.50;;;;;;;15.28;73.58;100051.44;5005979;28;20068;-68
2022/12/31 10:18:32;;;;;;;0.57;0.57;;;;;;;15.27;73.71;100043.69;5011758;28;20042;-68
2022/12/31 10:21:13;;;;;;;0.60;0.47;;;;;;;15.28;73.79;100037.47;5013449;28;20480;-68
2022/12/31 10:24:06;;;;;;;0.50;0.35;;;;;;;15.29;73.63;100042.59;5012576;28;20044;-68
2022/12/31 10:26:45;;;;;;;;;;;;;;;15.30;73.52;100036.38;5004043;28;20056;-68
2022/12/31 10:29:29;;;;;;;0.82;0.75;;;;;;;15.30;73.48;100031.13;5003173;28;20316;-68
2022/12/31 10:31:58;;;;;;;0.68;0.68;;;;;;;15.31;73.67;100038.03;5021899;28;20042;-68
2022/12/31 10:34:54;;;;;;;0.95;0.50;;;;;;;15.34;73.73;100036.94;5009820;28;20392;-68
2022/12/31 10:37:58;;;;;;;0.82;0.65;;;;;;;15.33;73.54;100037.91;5008230;28;20392;-68
2022/12/31 10:40:57;;;;;;;0.50;0.50;;;;;;;15.32;73.59;100052.00;5013865;28;20034;-68
2022/12/31 10:43:29;;;;;;;;;;;;;;;15.32;73.66;100046.75;5004938;28;20045;-68
2022/12/31 10:46:14;;;;;;;1.05;0.95;;;;;;;15.31;73.61;100045.09;5007924;28;19928;-68
2022/12/31 10:49:09;;;;;;;0.55;0.43;;;;;;;15.30;73.61;100038.16;5010644;28;20034;-68
2022/12/31 10:52:00;;;;;;;0.70;0.70;;;;;;;15.28;73.70;100048.00;5014255;28;20040;-68
2022/12/31 10:54:45;;;;;;;0.98;0.90;;;;;;;15.26;73.84;100036.78;5009837;28;20048;-67
2022/12/31 10:57:30;;;;;;;0.55;0.52;;;;;;;15.25;73.82;100033.31;5009970;28;20034;-68
2022/12/31 11:00:08;;;;;;;0.45;0.45;;;;;;;15.23;73.85;100022.09;5011985;28;20026;-68
2022/12/31 11:02:48;;;;;;;0.90;0.60;;;;;;;15.23;73.93;100016.00;5014704;28;20069;-68
2022/12/31 11:05:29;;;;;;;0.50;0.40;;;;;;;15.21;73.89;100024.03;5005029;28;20041;-67
2022/12/31 11:08:22;;;;;;;0.90;0.75;;;;;;;15.20;73.89;100014.50;5006807;28;20026;-67
2022/12/31 11:11:20;;;;;;;0.80;0.50;;;;;;;15.21;73.64;100025.84;5008411;28;20038;-68
2022/12/31 11:14:05;;;;;;;0.50;0.40;;;;;;;15.19;73.92;100023.34;5002898;28;20033;-67
2022/12/31 11:16:54;;;;;;;2.08;0.60;;;;;;;15.25;73.88;100029.84;5020393;28;20405;-68
2022/12/31 11:19:26;;;;;;;1.00;0.82;;;;;;;15.24;73.79;100030.81;5005695;28;20046;-68
2022/12/31 11:22:12;;;;;;;0.73;0.50;;;;;;;15.21;73.95;100033.72;5009217;28;20049;-67
2022/12/31 11:24:59;;;;;;;0.70;0.65;;;;;;;15.22;74.13;100043.25;5010180;28;20037;-68
2022/12/31 11:27:57;;;;;;;0.47;0.47;;;;;;;15.21;74.10;100039.81;5003888;28;20050;-67
2022/12/31 11:30:48;;;;;;;1.38;1.08;;;;;;;15.24;73.87;100052.69;5005171;28;20026;-68
2022/12/31 11:33:33;;;;;;;1.08;0.98;;;;;;;15.26;74.08;100040.25;5009137;28;20045;-69
2022/12/31 11:36:22;;;;;;;0.60;0.50;;;;;;;15.28;73.81;100045.38;5012048;28;20044;-67
2022/12/31 11:38:56;;;;;;;0.85;0.68;;;;;;;15.28;74.01;100045.38;5008992;28;20045;-67
2022/12/31 11:41:41;;;;;;;0.90;0.82;;;;;;;15.30;73.78;100039.00;5018814;28;20078;-67
2022/12/31 11:44:13;;;;;;;0.65;0.50;;;;;;;15.34;73.86;100029.88;5011074;28;20037;-67
2022/12/31 11:46:48;;;;;;;1.52;0.70;;;;;;;15.34;73.73;100024.59;5011351;28;20332;-67
2022/12/31 11:49:35;;;;;;;1.23;1.05;;;;;;;15.37;73.83;100017.41;5007974;28;20407;-67
2022/12/31 11:52:08;;;;;;;0.75;0.60;;;;;;;15.37;73.75;100012.97;5022622;28;20484;-67
2022/12/31 11:54:50;;;;;;;0.60;0.50;;;;;;;15.38;73.43;100019.91;5005096;28;20034;-67
2022/12/31 11:57:23;;;;;;;0.65;0.65;;;;;;;15.41;73.65;100016.19;5002955;28;20788;-67
2022/12/31 11:59:56;;;;;;;1.10;0.70;;;;;;;15.40;73.70;100011.88;5023468;28;20399;-67
2022/12/31 12:02:36;;;;;;;0.47;0.40;;;;;;;15.42;73.55;100010.75;5002708;28;20045;-67
2022/12/31 12:05:07;;;;;;;1.13;1.02;;;;;;;15.46;73.80;100006.88;5003735;28;20038;-68
2022/12/31 12:07:36;;;;;;;1.23;0.80;;;;;;;15.48;73.83;100006.75;5008789;28;20491;-68
2022/12/31 12:10:22;;;;;;;1.20;0.70;;;;;;;15.45;73.67;100007.84;5003196;28;20038;-68
2022/12/31 12:12:49;;;;;;;1.05;0.77;;;;;;;15.44;73.70;100008.84;5020043;28;20038;-67
2022/12/31 12:15:27;;;;;;;2.67;0.90;;;;;;;15.48;73.81;100006.75;5008358;28;20045;-67
2022/12/31 12:17:57;;;;;;;1.20;0.60;;;;;;;15.47;73.73;100002.44;5007286;28;20034;-68
2022/12/31 12:20:34;;;;;;;1.17;0.98;;;;;;;15.48;74.00;100001.50;5005013;28;20495;-68